sensor_id;sensor_type;location;lat;lon;timestamp;temperature;humidity
1025;DHT22;501;48.214;11.350;2023-11-18T00:00:23;5.90;64.90
1025;DHT22;501;48.214;11.350;2023-11-18T00:02:49;5.90;65.30
1025;DHT22;501;48.214;11.350;2023-11-18T00:05:15;5.90;64.80
1025;DHT22;501;48.214;11.350;2023-11-18T00:07:41;5.90;64.80
1025;DHT22;501;48.214;11.350;2023-11-18T00:10:07;5.90;65.30
1025;DHT22;501;48.214;11.350;2023-11-18T00:12:34;5.80;65.90
1025;DHT22;501;48.214;11.350;2023-11-18T00:15:05;5.90;66.00
1025;DHT22;501;48.214;11.350;2023-11-18T00:17:34;5.90;66.40
1025;DHT22;501;48.214;11.350;2023-11-18T00:19:59;5.90;65.60
1025;DHT22;501;48.214;11.350;2023-11-18T00:22:25;5.90;65.60
1025;DHT22;501;48.214;11.350;2023-11-18T00:24:51;5.90;64.80
1025;DHT22;501;48.214;11.350;2023-11-18T00:27:17;5.90;63.70
1025;DHT22;501;48.214;11.350;2023-11-18T00:29:43;5.80;64.10
1025;DHT22;501;48.214;11.350;2023-11-18T00:32:11;5.80;63.80
1025;DHT22;501;48.214;11.350;2023-11-18T00:34:37;5.70;64.70
1025;DHT22;501;48.214;11.350;2023-11-18T00:37:02;5.70;65.10
1025;DHT22;501;48.214;11.350;2023-11-18T00:39:29;5.70;64.60
1025;DHT22;501;48.214;11.350;2023-11-18T00:41:54;5.70;64.00
1025;DHT22;501;48.214;11.350;2023-11-18T00:44:21;5.70;63.20
1025;DHT22;501;48.214;11.350;2023-11-18T00:46:48;5.60;63.20
1025;DHT22;501;48.214;11.350;2023-11-18T00:49:14;5.60;64.30
1025;DHT22;501;48.214;11.350;2023-11-18T00:51:39;5.50;64.10
1025;DHT22;501;48.214;11.350;2023-11-18T00:54:07;5.60;65.00
1025;DHT22;501;48.214;11.350;2023-11-18T00:56:32;5.50;63.80
1025;DHT22;501;48.214;11.350;2023-11-18T00:58:59;5.50;64.50
1025;DHT22;501;48.214;11.350;2023-11-18T01:01:24;5.50;65.10
1025;DHT22;501;48.214;11.350;2023-11-18T01:03:50;5.50;65.00
1025;DHT22;501;48.214;11.350;2023-11-18T01:06:15;5.50;64.50
1025;DHT22;501;48.214;11.350;2023-11-18T01:08:47;5.50;65.30
1025;DHT22;501;48.214;11.350;2023-11-18T01:11:17;5.50;65.80
1025;DHT22;501;48.214;11.350;2023-11-18T01:13:51;5.40;65.40
1025;DHT22;501;48.214;11.350;2023-11-18T01:16:20;5.40;65.70
1025;DHT22;501;48.214;11.350;2023-11-18T01:18:45;5.40;66.30
1025;DHT22;501;48.214;11.350;2023-11-18T01:21:11;5.40;65.80
1025;DHT22;501;48.214;11.350;2023-11-18T01:23:38;5.40;65.00
1025;DHT22;501;48.214;11.350;2023-11-18T01:26:05;5.40;65.90
1025;DHT22;501;48.214;11.350;2023-11-18T01:28:36;5.40;66.60
1025;DHT22;501;48.214;11.350;2023-11-18T01:31:04;5.40;66.00
1025;DHT22;501;48.214;11.350;2023-11-18T01:33:30;5.40;66.10
1025;DHT22;501;48.214;11.350;2023-11-18T01:35:58;5.40;66.00
1025;DHT22;501;48.214;11.350;2023-11-18T01:38:24;5.30;67.00
1025;DHT22;501;48.214;11.350;2023-11-18T01:40:51;5.30;67.10
1025;DHT22;501;48.214;11.350;2023-11-18T01:43:18;5.30;67.60
1025;DHT22;501;48.214;11.350;2023-11-18T01:45:44;5.40;67.30
1025;DHT22;501;48.214;11.350;2023-11-18T01:48:10;5.40;68.40
1025;DHT22;501;48.214;11.350;2023-11-18T01:50:37;5.40;67.30
1025;DHT22;501;48.214;11.350;2023-11-18T01:53:05;5.40;68.20
1025;DHT22;501;48.214;11.350;2023-11-18T01:55:33;5.40;67.60
1025;DHT22;501;48.214;11.350;2023-11-18T01:58:00;5.40;67.40
1025;DHT22;501;48.214;11.350;2023-11-18T02:00:34;5.40;67.20
1025;DHT22;501;48.214;11.350;2023-11-18T02:03:00;5.40;67.30
1025;DHT22;501;48.214;11.350;2023-11-18T02:05:26;5.40;67.20
1025;DHT22;501;48.214;11.350;2023-11-18T02:07:52;5.40;66.70
1025;DHT22;501;48.214;11.350;2023-11-18T02:10:18;5.40;66.50
1025;DHT22;501;48.214;11.350;2023-11-18T02:12:50;5.40;67.10
1025;DHT22;501;48.214;11.350;2023-11-18T02:15:20;5.50;66.50
1025;DHT22;501;48.214;11.350;2023-11-18T02:17:47;5.50;66.30
1025;DHT22;501;48.214;11.350;2023-11-18T02:20:14;5.50;65.20
1025;DHT22;501;48.214;11.350;2023-11-18T02:22:44;5.50;64.60
1025;DHT22;501;48.214;11.350;2023-11-18T02:25:15;5.40;64.60
1025;DHT22;501;48.214;11.350;2023-11-18T02:27:42;5.40;65.70
1025;DHT22;501;48.214;11.350;2023-11-18T02:30:08;5.40;66.10
1025;DHT22;501;48.214;11.350;2023-11-18T02:32:56;5.40;65.70
1025;DHT22;501;48.214;11.350;2023-11-18T02:35:28;5.40;65.50
1025;DHT22;501;48.214;11.350;2023-11-18T02:37:55;5.30;66.00
1025;DHT22;501;48.214;11.350;2023-11-18T02:40:33;5.20;66.00
1025;DHT22;501;48.214;11.350;2023-11-18T02:43:01;5.20;66.80
1025;DHT22;501;48.214;11.350;2023-11-18T02:45:31;5.20;66.80
1025;DHT22;501;48.214;11.350;2023-11-18T02:47:57;5.20;66.00
1025;DHT22;501;48.214;11.350;2023-11-18T02:50:26;5.20;66.90
1025;DHT22;501;48.214;11.350;2023-11-18T02:52:53;5.20;67.20
1025;DHT22;501;48.214;11.350;2023-11-18T02:55:19;5.20;67.60
1025;DHT22;501;48.214;11.350;2023-11-18T02:57:46;5.20;67.10
1025;DHT22;501;48.214;11.350;2023-11-18T03:00:13;5.20;68.20
1025;DHT22;501;48.214;11.350;2023-11-18T03:02:44;5.20;68.40
1025;DHT22;501;48.214;11.350;2023-11-18T03:05:11;5.20;68.10
1025;DHT22;501;48.214;11.350;2023-11-18T03:07:38;5.20;68.10
1025;DHT22;501;48.214;11.350;2023-11-18T03:10:04;5.20;68.40
1025;DHT22;501;48.214;11.350;2023-11-18T03:12:36;5.20;68.50
1025;DHT22;501;48.214;11.350;2023-11-18T03:15:02;5.20;69.30
1025;DHT22;501;48.214;11.350;2023-11-18T03:17:28;5.20;68.10
1025;DHT22;501;48.214;11.350;2023-11-18T03:19:53;5.30;68.70
1025;DHT22;501;48.214;11.350;2023-11-18T03:22:19;5.30;68.10
1025;DHT22;501;48.214;11.350;2023-11-18T03:24:45;5.30;68.90
1025;DHT22;501;48.214;11.350;2023-11-18T03:27:10;5.30;68.40
1025;DHT22;501;48.214;11.350;2023-11-18T03:29:36;5.30;67.50
1025;DHT22;501;48.214;11.350;2023-11-18T03:32:02;5.40;67.90
1025;DHT22;501;48.214;11.350;2023-11-18T03:34:29;5.40;67.90
1025;DHT22;501;48.214;11.350;2023-11-18T03:36:54;5.40;67.00
1025;DHT22;501;48.214;11.350;2023-11-18T03:39:22;5.40;66.50
1025;DHT22;501;48.214;11.350;2023-11-18T03:41:48;5.40;66.70
1025;DHT22;501;48.214;11.350;2023-11-18T03:44:15;5.40;67.20
1025;DHT22;501;48.214;11.350;2023-11-18T03:46:40;5.40;68.10
1025;DHT22;501;48.214;11.350;2023-11-18T03:49:07;5.40;68.20
1025;DHT22;501;48.214;11.350;2023-11-18T03:51:32;5.40;67.40
1025;DHT22;501;48.214;11.350;2023-11-18T03:53:58;5.40;67.90
1025;DHT22;501;48.214;11.350;2023-11-18T03:56:23;5.40;67.90
1025;DHT22;501;48.214;11.350;2023-11-18T03:58:49;5.40;68.00
1025;DHT22;501;48.214;11.350;2023-11-18T04:01:22;5.30;67.50
1025;DHT22;501;48.214;11.350;2023-11-18T04:03:48;5.40;67.50
1025;DHT22;501;48.214;11.350;2023-11-18T04:06:15;5.40;67.30
1025;DHT22;501;48.214;11.350;2023-11-18T04:08:46;5.30;67.70
1025;DHT22;501;48.214;11.350;2023-11-18T04:11:15;5.30;67.50
1025;DHT22;501;48.214;11.350;2023-11-18T04:13:41;5.30;68.60
1025;DHT22;501;48.214;11.350;2023-11-18T04:16:13;5.30;67.10
1025;DHT22;501;48.214;11.350;2023-11-18T04:18:41;5.30;66.70
1025;DHT22;501;48.214;11.350;2023-11-18T04:21:09;5.30;67.10
1025;DHT22;501;48.214;11.350;2023-11-18T04:23:39;5.30;67.20
1025;DHT22;501;48.214;11.350;2023-11-18T04:26:05;5.40;67.50
1025;DHT22;501;48.214;11.350;2023-11-18T04:28:35;5.40;66.60
1025;DHT22;501;48.214;11.350;2023-11-18T04:31:01;5.40;66.80
1025;DHT22;501;48.214;11.350;2023-11-18T04:33:28;5.40;67.00
1025;DHT22;501;48.214;11.350;2023-11-18T04:35:55;5.40;67.10
1025;DHT22;501;48.214;11.350;2023-11-18T04:38:22;5.40;66.30
1025;DHT22;501;48.214;11.350;2023-11-18T04:40:48;5.40;66.20
1025;DHT22;501;48.214;11.350;2023-11-18T04:43:14;5.40;66.40
1025;DHT22;501;48.214;11.350;2023-11-18T04:45:40;5.40;66.50
1025;DHT22;501;48.214;11.350;2023-11-18T04:48:07;5.40;65.70
1025;DHT22;501;48.214;11.350;2023-11-18T04:50:33;5.50;66.00
1025;DHT22;501;48.214;11.350;2023-11-18T04:52:59;5.50;65.70
1025;DHT22;501;48.214;11.350;2023-11-18T04:55:25;5.40;65.00
1025;DHT22;501;48.214;11.350;2023-11-18T04:57:54;5.50;65.50
1025;DHT22;501;48.214;11.350;2023-11-18T05:00:20;5.50;65.20
1025;DHT22;501;48.214;11.350;2023-11-18T05:02:47;5.50;64.40
1025;DHT22;501;48.214;11.350;2023-11-18T05:05:14;5.50;63.90
1025;DHT22;501;48.214;11.350;2023-11-18T05:07:43;5.50;63.60
1025;DHT22;501;48.214;11.350;2023-11-18T05:10:09;5.50;63.80
1025;DHT22;501;48.214;11.350;2023-11-18T05:12:36;5.50;64.40
1025;DHT22;501;48.214;11.350;2023-11-18T05:15:05;5.60;65.20
1025;DHT22;501;48.214;11.350;2023-11-18T05:17:34;5.60;65.10
1025;DHT22;501;48.214;11.350;2023-11-18T05:20:02;5.60;64.40
1025;DHT22;501;48.214;11.350;2023-11-18T05:22:28;5.60;64.20
1025;DHT22;501;48.214;11.350;2023-11-18T05:24:53;5.60;64.10
1025;DHT22;501;48.214;11.350;2023-11-18T05:27:19;5.60;63.20
1025;DHT22;501;48.214;11.350;2023-11-18T05:29:45;5.60;63.10
1025;DHT22;501;48.214;11.350;2023-11-18T05:32:13;5.60;63.10
1025;DHT22;501;48.214;11.350;2023-11-18T05:34:39;5.60;62.50
1025;DHT22;501;48.214;11.350;2023-11-18T05:37:05;5.60;62.70
1025;DHT22;501;48.214;11.350;2023-11-18T05:39:30;5.60;62.60
1025;DHT22;501;48.214;11.350;2023-11-18T05:41:57;5.60;63.20
1025;DHT22;501;48.214;11.350;2023-11-18T05:44:23;5.60;63.20
1025;DHT22;501;48.214;11.350;2023-11-18T05:46:58;5.60;63.20
1025;DHT22;501;48.214;11.350;2023-11-18T05:49:24;5.60;63.30
1025;DHT22;501;48.214;11.350;2023-11-18T05:51:50;5.60;63.10
1025;DHT22;501;48.214;11.350;2023-11-18T05:54:17;5.70;63.20
1025;DHT22;501;48.214;11.350;2023-11-18T05:56:43;5.60;63.20
1025;DHT22;501;48.214;11.350;2023-11-18T05:59:09;5.60;63.20
1025;DHT22;501;48.214;11.350;2023-11-18T06:01:36;5.60;63.20
1025;DHT22;501;48.214;11.350;2023-11-18T06:04:05;5.60;63.30
1025;DHT22;501;48.214;11.350;2023-11-18T06:06:33;5.60;63.70
1025;DHT22;501;48.214;11.350;2023-11-18T06:08:59;5.60;63.60
1025;DHT22;501;48.214;11.350;2023-11-18T06:11:30;5.60;63.20
1025;DHT22;501;48.214;11.350;2023-11-18T06:13:57;5.60;63.20
1025;DHT22;501;48.214;11.350;2023-11-18T06:16:24;5.60;63.70
1025;DHT22;501;48.214;11.350;2023-11-18T06:18:51;5.60;64.40
1025;DHT22;501;48.214;11.350;2023-11-18T06:21:20;5.60;64.50
1025;DHT22;501;48.214;11.350;2023-11-18T06:23:48;5.60;64.60
1025;DHT22;501;48.214;11.350;2023-11-18T06:26:14;5.60;63.60
1025;DHT22;501;48.214;11.350;2023-11-18T06:28:41;5.60;64.40
1025;DHT22;501;48.214;11.350;2023-11-18T06:31:07;5.60;64.70
1025;DHT22;501;48.214;11.350;2023-11-18T06:33:40;5.60;64.30
1025;DHT22;501;48.214;11.350;2023-11-18T06:36:18;5.70;64.00
1025;DHT22;501;48.214;11.350;2023-11-18T06:38:45;5.70;64.00
1025;DHT22;501;48.214;11.350;2023-11-18T06:41:11;5.70;63.80
1025;DHT22;501;48.214;11.350;2023-11-18T06:43:39;5.70;63.30
1025;DHT22;501;48.214;11.350;2023-11-18T06:46:32;5.70;63.60
1025;DHT22;501;48.214;11.350;2023-11-18T06:49:05;5.70;64.20
1025;DHT22;501;48.214;11.350;2023-11-18T06:51:34;5.80;64.00
1025;DHT22;501;48.214;11.350;2023-11-18T06:54:04;5.80;63.40
1025;DHT22;501;48.214;11.350;2023-11-18T06:56:37;5.80;63.30
1025;DHT22;501;48.214;11.350;2023-11-18T06:59:08;5.80;62.10
1025;DHT22;501;48.214;11.350;2023-11-18T07:01:35;5.80;62.90
1025;DHT22;501;48.214;11.350;2023-11-18T07:04:02;5.80;62.00
1025;DHT22;501;48.214;11.350;2023-11-18T07:06:28;5.80;61.00
1025;DHT22;501;48.214;11.350;2023-11-18T07:08:54;5.90;60.90
1025;DHT22;501;48.214;11.350;2023-11-18T07:11:21;5.80;61.40
1025;DHT22;501;48.214;11.350;2023-11-18T07:13:48;5.80;61.50
1025;DHT22;501;48.214;11.350;2023-11-18T07:16:15;5.90;61.50
1025;DHT22;501;48.214;11.350;2023-11-18T07:18:41;5.80;62.10
1025;DHT22;501;48.214;11.350;2023-11-18T07:21:09;5.80;62.60
1025;DHT22;501;48.214;11.350;2023-11-18T07:23:35;5.90;62.90
1025;DHT22;501;48.214;11.350;2023-11-18T07:26:01;5.90;63.50
1025;DHT22;501;48.214;11.350;2023-11-18T07:28:29;5.90;63.40
1025;DHT22;501;48.214;11.350;2023-11-18T07:30:55;6.00;63.60
1025;DHT22;501;48.214;11.350;2023-11-18T07:33:21;6.00;63.50
1025;DHT22;501;48.214;11.350;2023-11-18T07:35:47;6.10;63.20
1025;DHT22;501;48.214;11.350;2023-11-18T07:38:14;6.10;63.20
1025;DHT22;501;48.214;11.350;2023-11-18T07:40:40;6.20;62.10
1025;DHT22;501;48.214;11.350;2023-11-18T07:43:14;6.20;62.10
1025;DHT22;501;48.214;11.350;2023-11-18T07:45:40;6.20;62.30
1025;DHT22;501;48.214;11.350;2023-11-18T07:48:08;6.20;61.80
1025;DHT22;501;48.214;11.350;2023-11-18T07:50:37;6.20;61.70
1025;DHT22;501;48.214;11.350;2023-11-18T07:53:04;6.30;61.20
1025;DHT22;501;48.214;11.350;2023-11-18T07:55:32;6.30;60.90
1025;DHT22;501;48.214;11.350;2023-11-18T07:58:03;6.30;59.80
1025;DHT22;501;48.214;11.350;2023-11-18T08:00:29;6.30;60.30
1025;DHT22;501;48.214;11.350;2023-11-18T08:02:58;6.40;61.90
1025;DHT22;501;48.214;11.350;2023-11-18T08:05:26;6.40;60.30
1025;DHT22;501;48.214;11.350;2023-11-18T08:07:52;6.40;61.20
1025;DHT22;501;48.214;11.350;2023-11-18T08:10:18;6.50;60.50
1025;DHT22;501;48.214;11.350;2023-11-18T08:12:45;6.50;59.90
1025;DHT22;501;48.214;11.350;2023-11-18T08:15:13;6.60;60.70
1025;DHT22;501;48.214;11.350;2023-11-18T08:17:39;6.70;60.90
1025;DHT22;501;48.214;11.350;2023-11-18T08:20:05;6.70;60.00
1025;DHT22;501;48.214;11.350;2023-11-18T08:22:43;6.80;59.80
1025;DHT22;501;48.214;11.350;2023-11-18T08:25:12;6.80;58.80
1025;DHT22;501;48.214;11.350;2023-11-18T08:27:41;6.90;59.00
1025;DHT22;501;48.214;11.350;2023-11-18T08:30:08;6.90;58.60
1025;DHT22;501;48.214;11.350;2023-11-18T08:32:41;6.90;58.10
1025;DHT22;501;48.214;11.350;2023-11-18T08:35:09;7.00;57.60
1025;DHT22;501;48.214;11.350;2023-11-18T08:37:37;7.00;56.90
1025;DHT22;501;48.214;11.350;2023-11-18T08:40:07;7.00;56.70
1025;DHT22;501;48.214;11.350;2023-11-18T08:42:44;7.00;56.80
1025;DHT22;501;48.214;11.350;2023-11-18T08:45:14;7.00;56.80
1025;DHT22;501;48.214;11.350;2023-11-18T08:47:45;7.10;56.10
1025;DHT22;501;48.214;11.350;2023-11-18T08:50:15;7.10;56.60
1025;DHT22;501;48.214;11.350;2023-11-18T08:52:45;7.20;56.30
1025;DHT22;501;48.214;11.350;2023-11-18T08:55:15;7.20;54.80
1025;DHT22;501;48.214;11.350;2023-11-18T08:57:47;7.30;54.00
1025;DHT22;501;48.214;11.350;2023-11-18T09:00:30;7.30;53.40
1025;DHT22;501;48.214;11.350;2023-11-18T09:03:14;7.30;52.80
1025;DHT22;501;48.214;11.350;2023-11-18T09:05:54;7.30;53.20
1025;DHT22;501;48.214;11.350;2023-11-18T09:10:56;7.40;52.70
1025;DHT22;501;48.214;11.350;2023-11-18T09:13:23;7.40;53.40
1025;DHT22;501;48.214;11.350;2023-11-18T09:15:54;7.40;52.10
1025;DHT22;501;48.214;11.350;2023-11-18T09:18:22;7.50;51.40
1025;DHT22;501;48.214;11.350;2023-11-18T09:20:47;7.50;51.20
1025;DHT22;501;48.214;11.350;2023-11-18T09:23:14;7.50;50.80
1025;DHT22;501;48.214;11.350;2023-11-18T09:25:42;7.50;51.60
1025;DHT22;501;48.214;11.350;2023-11-18T09:28:07;7.60;51.30
1025;DHT22;501;48.214;11.350;2023-11-18T09:30:37;7.60;49.90
1025;DHT22;501;48.214;11.350;2023-11-18T09:33:04;7.60;48.30
1025;DHT22;501;48.214;11.350;2023-11-18T09:35:40;7.60;50.00
1025;DHT22;501;48.214;11.350;2023-11-18T09:38:06;7.70;47.30
1025;DHT22;501;48.214;11.350;2023-11-18T09:40:32;7.70;48.00
1025;DHT22;501;48.214;11.350;2023-11-18T09:43:03;7.70;48.60
1025;DHT22;501;48.214;11.350;2023-11-18T09:45:34;7.70;49.40
1025;DHT22;501;48.214;11.350;2023-11-18T09:48:02;7.80;48.30
1025;DHT22;501;48.214;11.350;2023-11-18T09:50:29;7.80;48.10
1025;DHT22;501;48.214;11.350;2023-11-18T09:52:59;7.90;46.00
1025;DHT22;501;48.214;11.350;2023-11-18T09:55:38;7.90;45.20
1025;DHT22;501;48.214;11.350;2023-11-18T09:58:13;7.90;45.90
1025;DHT22;501;48.214;11.350;2023-11-18T10:00:41;7.90;46.70
1025;DHT22;501;48.214;11.350;2023-11-18T10:03:08;7.90;48.10
1025;DHT22;501;48.214;11.350;2023-11-18T10:05:36;7.90;47.00
1025;DHT22;501;48.214;11.350;2023-11-18T10:08:03;8.00;46.30
1025;DHT22;501;48.214;11.350;2023-11-18T10:10:31;8.00;46.20
1025;DHT22;501;48.214;11.350;2023-11-18T10:13:04;8.00;45.90
1025;DHT22;501;48.214;11.350;2023-11-18T10:15:50;8.00;45.90
1025;DHT22;501;48.214;11.350;2023-11-18T10:18:19;8.00;45.00
1025;DHT22;501;48.214;11.350;2023-11-18T10:20:49;8.00;44.60
1025;DHT22;501;48.214;11.350;2023-11-18T10:23:20;8.10;45.30
1025;DHT22;501;48.214;11.350;2023-11-18T10:25:51;8.10;44.70
1025;DHT22;501;48.214;11.350;2023-11-18T10:28:25;8.10;44.30
1025;DHT22;501;48.214;11.350;2023-11-18T10:31:00;8.20;44.80
1025;DHT22;501;48.214;11.350;2023-11-18T10:33:37;8.10;44.40
1025;DHT22;501;48.214;11.350;2023-11-18T10:36:04;8.20;43.70
1025;DHT22;501;48.214;11.350;2023-11-18T10:38:38;8.10;43.40
1025;DHT22;501;48.214;11.350;2023-11-18T10:41:09;8.10;43.70
1025;DHT22;501;48.214;11.350;2023-11-18T10:43:37;8.10;43.60
1025;DHT22;501;48.214;11.350;2023-11-18T10:46:09;8.20;44.10
1025;DHT22;501;48.214;11.350;2023-11-18T10:51:10;8.30;44.00
1025;DHT22;501;48.214;11.350;2023-11-18T10:53:43;8.30;45.50
1025;DHT22;501;48.214;11.350;2023-11-18T10:56:22;8.30;43.80
1025;DHT22;501;48.214;11.350;2023-11-18T10:59:12;8.30;44.40
1025;DHT22;501;48.214;11.350;2023-11-18T11:01:42;8.30;41.20
1025;DHT22;501;48.214;11.350;2023-11-18T11:04:08;8.40;41.20
1025;DHT22;501;48.214;11.350;2023-11-18T11:06:42;8.40;40.10
1025;DHT22;501;48.214;11.350;2023-11-18T11:09:08;8.40;40.90
1025;DHT22;501;48.214;11.350;2023-11-18T11:11:49;8.50;39.90
1025;DHT22;501;48.214;11.350;2023-11-18T11:14:16;8.50;39.90
1025;DHT22;501;48.214;11.350;2023-11-18T11:16:51;8.50;40.90
1025;DHT22;501;48.214;11.350;2023-11-18T11:19:46;8.60;42.10
1025;DHT22;501;48.214;11.350;2023-11-18T11:22:18;8.60;42.00
1025;DHT22;501;48.214;11.350;2023-11-18T11:25:18;8.80;42.60
1025;DHT22;501;48.214;11.350;2023-11-18T11:28:04;8.90;41.30
1025;DHT22;501;48.214;11.350;2023-11-18T11:33:46;9.10;39.40
1025;DHT22;501;48.214;11.350;2023-11-18T11:36:20;9.00;35.50
1025;DHT22;501;48.214;11.350;2023-11-18T11:38:52;9.00;35.60
1025;DHT22;501;48.214;11.350;2023-11-18T11:41:21;8.90;37.60
1025;DHT22;501;48.214;11.350;2023-11-18T11:43:52;8.90;38.10
1025;DHT22;501;48.214;11.350;2023-11-18T11:46:25;8.90;37.80
1025;DHT22;501;48.214;11.350;2023-11-18T11:48:53;8.90;37.30
1025;DHT22;501;48.214;11.350;2023-11-18T11:51:52;9.00;37.60
1025;DHT22;501;48.214;11.350;2023-11-18T11:54:27;9.00;38.20
1025;DHT22;501;48.214;11.350;2023-11-18T11:56:56;9.00;38.50
1025;DHT22;501;48.214;11.350;2023-11-18T12:02:25;9.00;37.10
1025;DHT22;501;48.214;11.350;2023-11-18T12:04:55;9.10;37.50
1025;DHT22;501;48.214;11.350;2023-11-18T12:07:25;9.10;36.80
1025;DHT22;501;48.214;11.350;2023-11-18T12:09:59;9.10;36.60
1025;DHT22;501;48.214;11.350;2023-11-18T12:12:26;9.10;35.80
1025;DHT22;501;48.214;11.350;2023-11-18T12:14:59;9.10;35.00
1025;DHT22;501;48.214;11.350;2023-11-18T12:20:41;9.10;34.60
1025;DHT22;501;48.214;11.350;2023-11-18T12:23:16;9.00;34.30
1025;DHT22;501;48.214;11.350;2023-11-18T12:25:47;9.10;34.70
1025;DHT22;501;48.214;11.350;2023-11-18T12:28:29;9.10;35.80
1025;DHT22;501;48.214;11.350;2023-11-18T12:31:00;9.10;36.30
1025;DHT22;501;48.214;11.350;2023-11-18T12:36:37;9.20;36.90
1025;DHT22;501;48.214;11.350;2023-11-18T12:39:48;9.20;36.70
1025;DHT22;501;48.214;11.350;2023-11-18T12:42:56;9.30;36.90
1025;DHT22;501;48.214;11.350;2023-11-18T12:45:43;9.40;36.90
1025;DHT22;501;48.214;11.350;2023-11-18T12:48:14;9.50;36.40
1025;DHT22;501;48.214;11.350;2023-11-18T12:50:41;9.60;36.70
1025;DHT22;501;48.214;11.350;2023-11-18T12:53:10;9.70;36.00
1025;DHT22;501;48.214;11.350;2023-11-18T12:55:36;9.80;36.10
1025;DHT22;501;48.214;11.350;2023-11-18T12:58:04;9.90;35.50
1025;DHT22;501;48.214;11.350;2023-11-18T13:00:31;10.10;35.70
1025;DHT22;501;48.214;11.350;2023-11-18T13:03:00;10.20;33.50
1025;DHT22;501;48.214;11.350;2023-11-18T13:05:25;10.40;34.10
1025;DHT22;501;48.214;11.350;2023-11-18T13:07:58;10.50;32.90
1025;DHT22;501;48.214;11.350;2023-11-18T13:10:26;10.60;33.00
1025;DHT22;501;48.214;11.350;2023-11-18T13:12:53;10.60;32.90
1025;DHT22;501;48.214;11.350;2023-11-18T13:15:19;10.50;31.50
1025;DHT22;501;48.214;11.350;2023-11-18T13:18:03;10.50;32.60
1025;DHT22;501;48.214;11.350;2023-11-18T13:20:32;10.40;32.50
1025;DHT22;501;48.214;11.350;2023-11-18T13:23:01;10.30;31.30
1025;DHT22;501;48.214;11.350;2023-11-18T13:25:36;10.20;32.40
1025;DHT22;501;48.214;11.350;2023-11-18T13:28:05;10.10;31.20
1025;DHT22;501;48.214;11.350;2023-11-18T13:30:35;10.00;31.30
1025;DHT22;501;48.214;11.350;2023-11-18T13:33:01;9.90;32.60
1025;DHT22;501;48.214;11.350;2023-11-18T13:35:26;9.80;33.00
1025;DHT22;501;48.214;11.350;2023-11-18T13:37:53;9.70;33.70
1025;DHT22;501;48.214;11.350;2023-11-18T13:40:19;9.70;33.10
1025;DHT22;501;48.214;11.350;2023-11-18T13:42:45;9.60;34.40
1025;DHT22;501;48.214;11.350;2023-11-18T13:45:13;9.60;32.80
1025;DHT22;501;48.214;11.350;2023-11-18T13:47:51;9.50;34.50
1025;DHT22;501;48.214;11.350;2023-11-18T13:50:20;9.60;34.50
1025;DHT22;501;48.214;11.350;2023-11-18T13:52:46;9.60;34.40
1025;DHT22;501;48.214;11.350;2023-11-18T13:55:15;9.60;34.70
1025;DHT22;501;48.214;11.350;2023-11-18T13:57:57;9.60;34.30
1025;DHT22;501;48.214;11.350;2023-11-18T14:00:25;9.50;34.40
1025;DHT22;501;48.214;11.350;2023-11-18T14:02:54;9.60;33.70
1025;DHT22;501;48.214;11.350;2023-11-18T14:05:22;9.90;34.60
1025;DHT22;501;48.214;11.350;2023-11-18T14:07:52;10.20;32.60
1025;DHT22;501;48.214;11.350;2023-11-18T14:10:24;10.40;32.50
1025;DHT22;501;48.214;11.350;2023-11-18T14:13:01;10.50;32.10
1025;DHT22;501;48.214;11.350;2023-11-18T14:15:28;10.50;31.50
1025;DHT22;501;48.214;11.350;2023-11-18T14:17:55;10.40;32.70
1025;DHT22;501;48.214;11.350;2023-11-18T14:20:20;10.20;31.20
1025;DHT22;501;48.214;11.350;2023-11-18T14:22:48;10.10;31.10
1025;DHT22;501;48.214;11.350;2023-11-18T14:25:15;10.00;31.60
1025;DHT22;501;48.214;11.350;2023-11-18T14:27:40;9.90;34.40
1025;DHT22;501;48.214;11.350;2023-11-18T14:30:07;9.90;35.40
1025;DHT22;501;48.214;11.350;2023-11-18T14:32:35;9.80;35.10
1025;DHT22;501;48.214;11.350;2023-11-18T14:35:00;9.70;35.20
1025;DHT22;501;48.214;11.350;2023-11-18T14:37:26;9.60;36.60
1025;DHT22;501;48.214;11.350;2023-11-18T14:39:52;9.50;35.20
1025;DHT22;501;48.214;11.350;2023-11-18T14:42:20;9.40;35.20
1025;DHT22;501;48.214;11.350;2023-11-18T14:44:49;9.40;37.30
1025;DHT22;501;48.214;11.350;2023-11-18T14:47:14;9.30;37.10
1025;DHT22;501;48.214;11.350;2023-11-18T14:49:42;9.20;37.00
1025;DHT22;501;48.214;11.350;2023-11-18T14:52:07;9.10;37.40
1025;DHT22;501;48.214;11.350;2023-11-18T14:54:34;9.00;36.60
1025;DHT22;501;48.214;11.350;2023-11-18T14:57:01;8.90;36.70
1025;DHT22;501;48.214;11.350;2023-11-18T14:59:28;8.90;38.60
1025;DHT22;501;48.214;11.350;2023-11-18T15:01:54;8.80;39.40
1025;DHT22;501;48.214;11.350;2023-11-18T15:04:23;8.80;40.10
1025;DHT22;501;48.214;11.350;2023-11-18T15:06:49;8.70;40.60
1025;DHT22;501;48.214;11.350;2023-11-18T15:09:18;8.60;41.40
1025;DHT22;501;48.214;11.350;2023-11-18T15:11:44;8.60;41.00
1025;DHT22;501;48.214;11.350;2023-11-18T15:14:11;8.60;41.30
1025;DHT22;501;48.214;11.350;2023-11-18T15:16:37;8.50;41.70
1025;DHT22;501;48.214;11.350;2023-11-18T15:19:03;8.50;42.10
1025;DHT22;501;48.214;11.350;2023-11-18T15:21:29;8.50;42.90
1025;DHT22;501;48.214;11.350;2023-11-18T15:23:57;8.40;43.10
1025;DHT22;501;48.214;11.350;2023-11-18T15:26:26;8.40;43.20
1025;DHT22;501;48.214;11.350;2023-11-18T15:28:51;8.40;43.40
1025;DHT22;501;48.214;11.350;2023-11-18T15:31:18;8.40;43.70
1025;DHT22;501;48.214;11.350;2023-11-18T15:33:44;8.40;44.30
1025;DHT22;501;48.214;11.350;2023-11-18T15:36:13;8.30;44.00
1025;DHT22;501;48.214;11.350;2023-11-18T15:38:41;8.30;44.00
1025;DHT22;501;48.214;11.350;2023-11-18T15:41:06;8.30;43.70
1025;DHT22;501;48.214;11.350;2023-11-18T15:43:33;8.20;43.10
1025;DHT22;501;48.214;11.350;2023-11-18T15:45:59;8.20;43.20
1025;DHT22;501;48.214;11.350;2023-11-18T15:48:25;8.20;42.60
1025;DHT22;501;48.214;11.350;2023-11-18T15:50:52;8.20;43.20
1025;DHT22;501;48.214;11.350;2023-11-18T15:53:17;8.10;42.50
1025;DHT22;501;48.214;11.350;2023-11-18T15:55:45;8.10;42.30
1025;DHT22;501;48.214;11.350;2023-11-18T15:58:13;8.10;42.50
1025;DHT22;501;48.214;11.350;2023-11-18T16:00:39;8.10;41.40
1025;DHT22;501;48.214;11.350;2023-11-18T16:03:05;8.10;41.70
1025;DHT22;501;48.214;11.350;2023-11-18T16:05:34;8.00;41.60
1025;DHT22;501;48.214;11.350;2023-11-18T16:08:01;8.00;41.80
1025;DHT22;501;48.214;11.350;2023-11-18T16:10:27;8.00;41.90
1025;DHT22;501;48.214;11.350;2023-11-18T16:12:55;8.00;42.60
1025;DHT22;501;48.214;11.350;2023-11-18T16:15:22;7.90;42.70
1025;DHT22;501;48.214;11.350;2023-11-18T16:17:48;7.90;43.40
1025;DHT22;501;48.214;11.350;2023-11-18T16:20:15;7.90;43.40
1025;DHT22;501;48.214;11.350;2023-11-18T16:22:46;7.90;43.80
1025;DHT22;501;48.214;11.350;2023-11-18T16:25:25;7.90;43.90
1025;DHT22;501;48.214;11.350;2023-11-18T16:27:57;7.90;43.50
1025;DHT22;501;48.214;11.350;2023-11-18T16:30:25;7.90;42.90
1025;DHT22;501;48.214;11.350;2023-11-18T16:32:53;7.90;43.20
1025;DHT22;501;48.214;11.350;2023-11-18T16:35:19;7.90;43.70
1025;DHT22;501;48.214;11.350;2023-11-18T16:37:46;7.90;44.20
1025;DHT22;501;48.214;11.350;2023-11-18T16:40:12;7.90;44.10
1025;DHT22;501;48.214;11.350;2023-11-18T16:42:42;7.80;44.00
1025;DHT22;501;48.214;11.350;2023-11-18T16:45:08;7.80;44.30